Terminal Aerodrome Forecast
Issued by NWS

Current Version | Previous Version | Text Only | Print | Product List | Glossary Off
Versions: 1 2 3 4 5 6 7 8 9 10 11 12 13 14 15 16 17 18 19 20 21

367
FTUS41 KPBZ 210534
TAFHLG
TAF
KHLG 210534Z 2106/2206 19004KT P6SM SCT120
     FM210800 17004KT 3SM BR BKN025
      TEMPO 2108/2112 1SM BR
     FM211400 17005KT P6SM BKN040=

USA.gov is the U.S. government's official web portal to all federal, state and local government web resources and services.